sensor_id;sensor_type;location;lat;lon;timestamp;P1;durP1;ratioP1;P2;durP2;ratioP2
72649;SDS011;61467;50.674;4.618;2023-07-29T00:02:25;8.32;;;1.70;;
72649;SDS011;61467;50.674;4.618;2023-07-29T00:04:54;4.40;;;1.40;;
72649;SDS011;61467;50.674;4.618;2023-07-29T00:07:21;5.72;;;1.50;;
72649;SDS011;61467;50.674;4.618;2023-07-29T00:09:50;6.40;;;1.70;;
72649;SDS011;61467;50.674;4.618;2023-07-29T00:12:17;4.20;;;1.40;;
72649;SDS011;61467;50.674;4.618;2023-07-29T00:14:44;4.68;;;1.33;;
72649;SDS011;61467;50.674;4.618;2023-07-29T00:17:11;4.03;;;1.30;;
72649;SDS011;61467;50.674;4.618;2023-07-29T00:19:39;6.05;;;1.40;;
72649;SDS011;61467;50.674;4.618;2023-07-29T00:22:06;4.65;;;1.40;;
72649;SDS011;61467;50.674;4.618;2023-07-29T00:24:33;5.78;;;1.30;;
72649;SDS011;61467;50.674;4.618;2023-07-29T00:27:02;5.25;;;1.40;;
72649;SDS011;61467;50.674;4.618;2023-07-29T00:29:30;5.67;;;1.67;;
72649;SDS011;61467;50.674;4.618;2023-07-29T00:31:57;7.00;;;1.67;;
72649;SDS011;61467;50.674;4.618;2023-07-29T00:34:25;5.63;;;1.60;;
72649;SDS011;61467;50.674;4.618;2023-07-29T00:36:51;4.15;;;1.35;;
72649;SDS011;61467;50.674;4.618;2023-07-29T00:39:18;4.57;;;1.52;;
72649;SDS011;61467;50.674;4.618;2023-07-29T00:41:45;3.90;;;1.37;;
72649;SDS011;61467;50.674;4.618;2023-07-29T00:44:13;4.47;;;1.40;;
72649;SDS011;61467;50.674;4.618;2023-07-29T00:46:40;7.25;;;1.40;;
72649;SDS011;61467;50.674;4.618;2023-07-29T00:49:08;4.38;;;1.17;;
72649;SDS011;61467;50.674;4.618;2023-07-29T00:51:34;5.55;;;1.40;;
72649;SDS011;61467;50.674;4.618;2023-07-29T00:54:02;6.03;;;1.10;;
72649;SDS011;61467;50.674;4.618;2023-07-29T00:56:29;5.80;;;1.30;;
72649;SDS011;61467;50.674;4.618;2023-07-29T00:58:56;5.97;;;1.50;;
72649;SDS011;61467;50.674;4.618;2023-07-29T01:01:28;4.25;;;1.30;;
72649;SDS011;61467;50.674;4.618;2023-07-29T01:03:55;4.78;;;1.25;;
72649;SDS011;61467;50.674;4.618;2023-07-29T01:06:23;4.07;;;1.23;;
72649;SDS011;61467;50.674;4.618;2023-07-29T01:08:57;4.88;;;1.23;;
72649;SDS011;61467;50.674;4.618;2023-07-29T01:11:33;4.70;;;1.27;;
72649;SDS011;61467;50.674;4.618;2023-07-29T01:14:10;5.05;;;1.40;;
72649;SDS011;61467;50.674;4.618;2023-07-29T01:16:49;4.50;;;1.30;;
72649;SDS011;61467;50.674;4.618;2023-07-29T01:19:23;5.37;;;1.20;;
72649;SDS011;61467;50.674;4.618;2023-07-29T01:22:03;6.82;;;1.13;;
72649;SDS011;61467;50.674;4.618;2023-07-29T01:24:32;4.65;;;1.02;;
72649;SDS011;61467;50.674;4.618;2023-07-29T01:26:59;5.05;;;1.35;;
72649;SDS011;61467;50.674;4.618;2023-07-29T01:29:29;4.32;;;1.10;;
72649;SDS011;61467;50.674;4.618;2023-07-29T01:31:56;3.53;;;1.00;;
72649;SDS011;61467;50.674;4.618;2023-07-29T01:34:32;6.53;;;1.25;;
72649;SDS011;61467;50.674;4.618;2023-07-29T01:37:05;7.18;;;1.65;;
72649;SDS011;61467;50.674;4.618;2023-07-29T01:39:37;8.10;;;1.35;;
72649;SDS011;61467;50.674;4.618;2023-07-29T01:42:05;4.90;;;0.90;;
72649;SDS011;61467;50.674;4.618;2023-07-29T01:44:32;4.67;;;1.10;;
72649;SDS011;61467;50.674;4.618;2023-07-29T01:46:59;5.32;;;1.30;;
72649;SDS011;61467;50.674;4.618;2023-07-29T01:49:26;5.03;;;1.23;;
72649;SDS011;61467;50.674;4.618;2023-07-29T01:51:53;7.25;;;1.25;;
72649;SDS011;61467;50.674;4.618;2023-07-29T01:54:21;5.63;;;1.30;;
72649;SDS011;61467;50.674;4.618;2023-07-29T01:56:50;6.53;;;1.30;;
72649;SDS011;61467;50.674;4.618;2023-07-29T01:59:17;6.55;;;1.30;;
72649;SDS011;61467;50.674;4.618;2023-07-29T02:01:44;5.75;;;1.58;;
72649;SDS011;61467;50.674;4.618;2023-07-29T02:04:11;3.75;;;1.20;;
72649;SDS011;61467;50.674;4.618;2023-07-29T02:06:38;4.15;;;1.13;;
72649;SDS011;61467;50.674;4.618;2023-07-29T02:09:05;5.93;;;0.97;;
72649;SDS011;61467;50.674;4.618;2023-07-29T02:11:32;5.68;;;1.40;;
72649;SDS011;61467;50.674;4.618;2023-07-29T02:14:00;5.28;;;1.13;;
72649;SDS011;61467;50.674;4.618;2023-07-29T02:16:27;4.63;;;1.20;;
72649;SDS011;61467;50.674;4.618;2023-07-29T02:18:54;5.30;;;1.60;;
72649;SDS011;61467;50.674;4.618;2023-07-29T02:21:21;4.80;;;1.50;;
72649;SDS011;61467;50.674;4.618;2023-07-29T02:23:48;5.20;;;1.70;;
72649;SDS011;61467;50.674;4.618;2023-07-29T02:26:15;7.80;;;1.63;;
72649;SDS011;61467;50.674;4.618;2023-07-29T02:28:42;6.35;;;1.60;;
72649;SDS011;61467;50.674;4.618;2023-07-29T02:31:15;4.55;;;1.48;;
72649;SDS011;61467;50.674;4.618;2023-07-29T02:33:43;7.53;;;1.20;;
72649;SDS011;61467;50.674;4.618;2023-07-29T02:36:10;6.43;;;1.40;;
72649;SDS011;61467;50.674;4.618;2023-07-29T02:38:38;4.75;;;1.52;;
72649;SDS011;61467;50.674;4.618;2023-07-29T02:41:05;5.30;;;1.50;;
72649;SDS011;61467;50.674;4.618;2023-07-29T02:43:34;6.80;;;1.58;;
72649;SDS011;61467;50.674;4.618;2023-07-29T02:46:00;5.03;;;1.47;;
72649;SDS011;61467;50.674;4.618;2023-07-29T02:48:29;7.03;;;1.58;;
72649;SDS011;61467;50.674;4.618;2023-07-29T02:50:56;7.43;;;1.63;;
72649;SDS011;61467;50.674;4.618;2023-07-29T02:53:23;7.47;;;1.40;;
72649;SDS011;61467;50.674;4.618;2023-07-29T02:55:50;6.03;;;1.77;;
72649;SDS011;61467;50.674;4.618;2023-07-29T02:58:18;6.17;;;1.67;;
72649;SDS011;61467;50.674;4.618;2023-07-29T03:00:45;5.03;;;1.58;;
72649;SDS011;61467;50.674;4.618;2023-07-29T03:03:13;7.47;;;1.67;;
72649;SDS011;61467;50.674;4.618;2023-07-29T03:05:42;4.65;;;1.50;;
72649;SDS011;61467;50.674;4.618;2023-07-29T03:08:09;5.88;;;1.38;;
72649;SDS011;61467;50.674;4.618;2023-07-29T03:10:36;5.10;;;1.50;;
72649;SDS011;61467;50.674;4.618;2023-07-29T03:13:02;8.15;;;1.88;;
72649;SDS011;61467;50.674;4.618;2023-07-29T03:15:29;6.65;;;1.70;;
72649;SDS011;61467;50.674;4.618;2023-07-29T03:17:56;6.20;;;1.40;;
72649;SDS011;61467;50.674;4.618;2023-07-29T03:20:23;5.53;;;1.55;;
72649;SDS011;61467;50.674;4.618;2023-07-29T03:22:52;3.43;;;1.20;;
72649;SDS011;61467;50.674;4.618;2023-07-29T03:25:19;6.20;;;1.20;;
72649;SDS011;61467;50.674;4.618;2023-07-29T03:27:45;5.80;;;1.38;;
72649;SDS011;61467;50.674;4.618;2023-07-29T03:30:14;3.83;;;1.20;;
72649;SDS011;61467;50.674;4.618;2023-07-29T03:32:42;4.70;;;1.25;;
72649;SDS011;61467;50.674;4.618;2023-07-29T03:35:10;5.57;;;1.63;;
72649;SDS011;61467;50.674;4.618;2023-07-29T03:37:37;5.30;;;1.25;;
72649;SDS011;61467;50.674;4.618;2023-07-29T03:40:06;5.47;;;1.27;;
72649;SDS011;61467;50.674;4.618;2023-07-29T03:42:34;6.78;;;1.58;;
72649;SDS011;61467;50.674;4.618;2023-07-29T03:45:01;4.50;;;1.10;;
72649;SDS011;61467;50.674;4.618;2023-07-29T03:47:27;5.07;;;1.23;;
72649;SDS011;61467;50.674;4.618;2023-07-29T03:49:54;4.53;;;1.05;;
72649;SDS011;61467;50.674;4.618;2023-07-29T03:52:21;5.50;;;2.25;;
72649;SDS011;61467;50.674;4.618;2023-07-29T03:54:48;4.38;;;1.33;;
72649;SDS011;61467;50.674;4.618;2023-07-29T03:57:16;4.43;;;1.30;;
72649;SDS011;61467;50.674;4.618;2023-07-29T03:59:43;4.60;;;1.40;;
72649;SDS011;61467;50.674;4.618;2023-07-29T04:02:10;7.00;;;1.48;;
72649;SDS011;61467;50.674;4.618;2023-07-29T04:04:37;5.55;;;1.60;;
72649;SDS011;61467;50.674;4.618;2023-07-29T04:07:04;5.50;;;1.30;;
72649;SDS011;61467;50.674;4.618;2023-07-29T04:09:32;4.05;;;1.33;;
72649;SDS011;61467;50.674;4.618;2023-07-29T04:11:59;4.97;;;1.30;;
72649;SDS011;61467;50.674;4.618;2023-07-29T04:14:27;6.85;;;1.48;;
72649;SDS011;61467;50.674;4.618;2023-07-29T04:16:54;5.28;;;1.33;;
72649;SDS011;61467;50.674;4.618;2023-07-29T04:19:21;4.57;;;1.40;;
72649;SDS011;61467;50.674;4.618;2023-07-29T04:21:48;4.95;;;1.40;;
72649;SDS011;61467;50.674;4.618;2023-07-29T04:24:16;5.53;;;1.20;;
72649;SDS011;61467;50.674;4.618;2023-07-29T04:26:42;5.45;;;1.20;;
72649;SDS011;61467;50.674;4.618;2023-07-29T04:29:10;5.55;;;1.70;;
72649;SDS011;61467;50.674;4.618;2023-07-29T04:31:40;4.38;;;1.20;;
72649;SDS011;61467;50.674;4.618;2023-07-29T04:34:08;3.75;;;0.98;;
72649;SDS011;61467;50.674;4.618;2023-07-29T04:36:35;4.37;;;0.97;;
72649;SDS011;61467;50.674;4.618;2023-07-29T04:39:02;4.57;;;1.17;;
72649;SDS011;61467;50.674;4.618;2023-07-29T04:41:29;5.57;;;1.23;;
72649;SDS011;61467;50.674;4.618;2023-07-29T04:43:55;6.60;;;1.20;;
72649;SDS011;61467;50.674;4.618;2023-07-29T04:46:23;5.13;;;1.38;;
72649;SDS011;61467;50.674;4.618;2023-07-29T04:48:51;4.93;;;0.93;;
72649;SDS011;61467;50.674;4.618;2023-07-29T04:51:18;5.90;;;1.27;;
72649;SDS011;61467;50.674;4.618;2023-07-29T04:53:44;7.03;;;1.20;;
72649;SDS011;61467;50.674;4.618;2023-07-29T04:56:11;5.15;;;1.20;;
72649;SDS011;61467;50.674;4.618;2023-07-29T04:58:38;5.10;;;1.35;;
72649;SDS011;61467;50.674;4.618;2023-07-29T05:01:05;5.50;;;1.03;;
72649;SDS011;61467;50.674;4.618;2023-07-29T05:03:32;6.32;;;1.20;;
72649;SDS011;61467;50.674;4.618;2023-07-29T05:06:01;4.55;;;1.00;;
72649;SDS011;61467;50.674;4.618;2023-07-29T05:08:28;5.63;;;1.30;;
72649;SDS011;61467;50.674;4.618;2023-07-29T05:10:55;5.25;;;1.20;;
72649;SDS011;61467;50.674;4.618;2023-07-29T05:13:22;4.97;;;1.20;;
72649;SDS011;61467;50.674;4.618;2023-07-29T05:15:49;4.00;;;1.10;;
72649;SDS011;61467;50.674;4.618;2023-07-29T05:18:16;8.38;;;1.60;;
72649;SDS011;61467;50.674;4.618;2023-07-29T05:20:43;4.35;;;1.10;;
72649;SDS011;61467;50.674;4.618;2023-07-29T05:23:12;8.23;;;1.27;;
72649;SDS011;61467;50.674;4.618;2023-07-29T05:25:39;7.47;;;2.03;;
72649;SDS011;61467;50.674;4.618;2023-07-29T05:28:05;4.13;;;1.10;;
72649;SDS011;61467;50.674;4.618;2023-07-29T05:30:32;4.47;;;1.05;;
72649;SDS011;61467;50.674;4.618;2023-07-29T05:33:02;4.47;;;1.05;;
72649;SDS011;61467;50.674;4.618;2023-07-29T05:35:29;5.90;;;1.20;;
72649;SDS011;61467;50.674;4.618;2023-07-29T05:37:57;4.43;;;1.10;;
72649;SDS011;61467;50.674;4.618;2023-07-29T05:40:26;6.13;;;1.48;;
72649;SDS011;61467;50.674;4.618;2023-07-29T05:42:54;6.13;;;1.30;;
72649;SDS011;61467;50.674;4.618;2023-07-29T05:45:21;5.47;;;1.25;;
72649;SDS011;61467;50.674;4.618;2023-07-29T05:47:48;7.32;;;1.30;;
72649;SDS011;61467;50.674;4.618;2023-07-29T05:50:15;3.67;;;1.10;;
72649;SDS011;61467;50.674;4.618;2023-07-29T05:52:42;4.82;;;1.30;;
72649;SDS011;61467;50.674;4.618;2023-07-29T05:55:09;6.05;;;0.95;;
72649;SDS011;61467;50.674;4.618;2023-07-29T05:57:37;4.82;;;1.00;;
72649;SDS011;61467;50.674;4.618;2023-07-29T06:00:04;7.05;;;1.25;;
72649;SDS011;61467;50.674;4.618;2023-07-29T06:02:32;4.97;;;1.67;;
72649;SDS011;61467;50.674;4.618;2023-07-29T06:04:59;5.20;;;1.58;;
72649;SDS011;61467;50.674;4.618;2023-07-29T06:07:28;4.18;;;1.20;;
72649;SDS011;61467;50.674;4.618;2023-07-29T06:09:57;4.32;;;1.10;;
72649;SDS011;61467;50.674;4.618;2023-07-29T06:12:24;5.10;;;1.30;;
72649;SDS011;61467;50.674;4.618;2023-07-29T06:14:52;4.30;;;1.00;;
72649;SDS011;61467;50.674;4.618;2023-07-29T06:17:18;3.72;;;1.20;;
72649;SDS011;61467;50.674;4.618;2023-07-29T06:19:45;5.65;;;1.30;;
72649;SDS011;61467;50.674;4.618;2023-07-29T06:22:12;6.10;;;1.20;;
72649;SDS011;61467;50.674;4.618;2023-07-29T06:24:39;5.35;;;1.02;;
72649;SDS011;61467;50.674;4.618;2023-07-29T06:27:06;5.17;;;1.30;;
72649;SDS011;61467;50.674;4.618;2023-07-29T06:29:32;4.30;;;1.10;;
72649;SDS011;61467;50.674;4.618;2023-07-29T06:32:01;4.18;;;1.08;;
72649;SDS011;61467;50.674;4.618;2023-07-29T06:34:28;5.25;;;1.23;;
72649;SDS011;61467;50.674;4.618;2023-07-29T06:36:54;5.10;;;1.30;;
72649;SDS011;61467;50.674;4.618;2023-07-29T06:39:21;3.80;;;1.17;;
72649;SDS011;61467;50.674;4.618;2023-07-29T06:41:48;4.45;;;1.10;;
72649;SDS011;61467;50.674;4.618;2023-07-29T06:44:15;4.95;;;1.35;;
72649;SDS011;61467;50.674;4.618;2023-07-29T06:46:42;4.53;;;1.00;;
72649;SDS011;61467;50.674;4.618;2023-07-29T06:49:10;5.32;;;0.88;;
72649;SDS011;61467;50.674;4.618;2023-07-29T06:51:37;3.40;;;0.80;;
72649;SDS011;61467;50.674;4.618;2023-07-29T06:54:04;3.90;;;0.90;;
72649;SDS011;61467;50.674;4.618;2023-07-29T06:56:31;4.13;;;1.17;;
72649;SDS011;61467;50.674;4.618;2023-07-29T06:58:58;4.22;;;1.10;;
72649;SDS011;61467;50.674;4.618;2023-07-29T07:01:25;13.07;;;1.20;;
72649;SDS011;61467;50.674;4.618;2023-07-29T07:03:51;6.50;;;0.80;;
72649;SDS011;61467;50.674;4.618;2023-07-29T07:06:21;4.03;;;1.10;;
72649;SDS011;61467;50.674;4.618;2023-07-29T07:08:49;5.47;;;0.93;;
72649;SDS011;61467;50.674;4.618;2023-07-29T07:11:16;6.25;;;1.17;;
72649;SDS011;61467;50.674;4.618;2023-07-29T07:13:44;4.13;;;1.00;;
72649;SDS011;61467;50.674;4.618;2023-07-29T07:16:11;4.57;;;0.93;;
72649;SDS011;61467;50.674;4.618;2023-07-29T07:18:38;5.28;;;1.10;;
72649;SDS011;61467;50.674;4.618;2023-07-29T07:21:05;3.97;;;0.90;;
72649;SDS011;61467;50.674;4.618;2023-07-29T07:23:34;3.85;;;1.02;;
72649;SDS011;61467;50.674;4.618;2023-07-29T07:26:01;4.47;;;1.10;;
72649;SDS011;61467;50.674;4.618;2023-07-29T07:28:28;4.10;;;0.90;;
72649;SDS011;61467;50.674;4.618;2023-07-29T07:30:55;4.68;;;1.08;;
72649;SDS011;61467;50.674;4.618;2023-07-29T07:33:21;3.42;;;1.00;;
72649;SDS011;61467;50.674;4.618;2023-07-29T07:35:48;3.95;;;1.02;;
72649;SDS011;61467;50.674;4.618;2023-07-29T07:38:15;3.47;;;0.95;;
72649;SDS011;61467;50.674;4.618;2023-07-29T07:40:46;3.60;;;0.80;;
72649;SDS011;61467;50.674;4.618;2023-07-29T07:43:19;3.97;;;0.88;;
72649;SDS011;61467;50.674;4.618;2023-07-29T07:45:46;3.20;;;1.00;;
72649;SDS011;61467;50.674;4.618;2023-07-29T07:48:13;4.90;;;0.90;;
72649;SDS011;61467;50.674;4.618;2023-07-29T07:50:41;3.70;;;0.90;;
72649;SDS011;61467;50.674;4.618;2023-07-29T07:53:08;5.17;;;1.10;;
72649;SDS011;61467;50.674;4.618;2023-07-29T07:55:39;4.85;;;1.00;;
72649;SDS011;61467;50.674;4.618;2023-07-29T07:58:07;4.35;;;1.00;;
72649;SDS011;61467;50.674;4.618;2023-07-29T08:00:34;3.35;;;0.90;;
72649;SDS011;61467;50.674;4.618;2023-07-29T08:03:01;3.13;;;0.82;;
72649;SDS011;61467;50.674;4.618;2023-07-29T08:05:28;3.87;;;0.90;;
72649;SDS011;61467;50.674;4.618;2023-07-29T08:07:55;4.93;;;1.10;;
72649;SDS011;61467;50.674;4.618;2023-07-29T08:10:22;4.50;;;1.13;;
72649;SDS011;61467;50.674;4.618;2023-07-29T08:12:49;6.53;;;1.30;;
72649;SDS011;61467;50.674;4.618;2023-07-29T08:15:17;3.65;;;1.17;;
72649;SDS011;61467;50.674;4.618;2023-07-29T08:17:45;5.50;;;1.10;;
72649;SDS011;61467;50.674;4.618;2023-07-29T08:20:12;3.97;;;0.98;;
72649;SDS011;61467;50.674;4.618;2023-07-29T08:22:39;3.75;;;1.05;;
72649;SDS011;61467;50.674;4.618;2023-07-29T08:25:06;2.92;;;0.80;;
72649;SDS011;61467;50.674;4.618;2023-07-29T08:27:33;3.60;;;0.80;;
72649;SDS011;61467;50.674;4.618;2023-07-29T08:30:00;5.20;;;1.00;;
72649;SDS011;61467;50.674;4.618;2023-07-29T08:32:31;4.43;;;1.00;;
72649;SDS011;61467;50.674;4.618;2023-07-29T08:34:57;2.97;;;0.70;;
72649;SDS011;61467;50.674;4.618;2023-07-29T08:37:24;4.10;;;0.80;;
72649;SDS011;61467;50.674;4.618;2023-07-29T08:39:52;3.20;;;0.88;;
72649;SDS011;61467;50.674;4.618;2023-07-29T08:42:20;3.57;;;0.90;;
72649;SDS011;61467;50.674;4.618;2023-07-29T08:44:49;3.65;;;0.98;;
72649;SDS011;61467;50.674;4.618;2023-07-29T08:47:17;4.07;;;1.30;;
72649;SDS011;61467;50.674;4.618;2023-07-29T08:49:47;3.65;;;0.88;;
72649;SDS011;61467;50.674;4.618;2023-07-29T08:52:14;4.03;;;1.08;;
72649;SDS011;61467;50.674;4.618;2023-07-29T08:54:42;3.73;;;1.23;;
72649;SDS011;61467;50.674;4.618;2023-07-29T08:57:09;4.40;;;1.05;;
72649;SDS011;61467;50.674;4.618;2023-07-29T08:59:36;4.72;;;1.10;;
72649;SDS011;61467;50.674;4.618;2023-07-29T09:02:04;3.80;;;1.00;;
72649;SDS011;61467;50.674;4.618;2023-07-29T09:04:30;4.68;;;1.15;;
72649;SDS011;61467;50.674;4.618;2023-07-29T09:06:59;4.53;;;1.10;;
72649;SDS011;61467;50.674;4.618;2023-07-29T09:09:28;8.10;;;1.45;;
72649;SDS011;61467;50.674;4.618;2023-07-29T09:11:55;4.13;;;1.10;;
72649;SDS011;61467;50.674;4.618;2023-07-29T09:14:23;4.03;;;1.20;;
72649;SDS011;61467;50.674;4.618;2023-07-29T09:16:50;3.97;;;1.10;;
72649;SDS011;61467;50.674;4.618;2023-07-29T09:19:20;6.40;;;1.33;;
72649;SDS011;61467;50.674;4.618;2023-07-29T09:21:47;4.07;;;1.08;;
72649;SDS011;61467;50.674;4.618;2023-07-29T09:24:16;3.60;;;1.00;;
72649;SDS011;61467;50.674;4.618;2023-07-29T09:26:48;4.70;;;1.10;;
72649;SDS011;61467;50.674;4.618;2023-07-29T09:29:15;4.57;;;1.48;;
72649;SDS011;61467;50.674;4.618;2023-07-29T09:31:47;4.10;;;1.20;;
72649;SDS011;61467;50.674;4.618;2023-07-29T09:34:15;5.38;;;1.45;;
72649;SDS011;61467;50.674;4.618;2023-07-29T09:36:42;3.65;;;1.15;;
72649;SDS011;61467;50.674;4.618;2023-07-29T09:39:10;4.57;;;1.02;;
72649;SDS011;61467;50.674;4.618;2023-07-29T09:41:39;4.72;;;1.30;;
72649;SDS011;61467;50.674;4.618;2023-07-29T09:44:08;4.50;;;1.10;;
72649;SDS011;61467;50.674;4.618;2023-07-29T09:46:37;3.90;;;1.00;;
72649;SDS011;61467;50.674;4.618;2023-07-29T09:49:05;4.32;;;1.10;;
72649;SDS011;61467;50.674;4.618;2023-07-29T09:51:36;4.13;;;1.20;;
72649;SDS011;61467;50.674;4.618;2023-07-29T09:54:03;4.63;;;1.10;;
72649;SDS011;61467;50.674;4.618;2023-07-29T09:56:31;4.87;;;1.07;;
72649;SDS011;61467;50.674;4.618;2023-07-29T09:58:59;5.90;;;1.15;;
72649;SDS011;61467;50.674;4.618;2023-07-29T10:01:26;4.20;;;1.23;;
72649;SDS011;61467;50.674;4.618;2023-07-29T10:03:54;5.13;;;1.17;;
72649;SDS011;61467;50.674;4.618;2023-07-29T10:06:25;3.75;;;1.10;;
72649;SDS011;61467;50.674;4.618;2023-07-29T10:08:53;4.77;;;1.07;;
72649;SDS011;61467;50.674;4.618;2023-07-29T10:11:20;5.55;;;1.30;;
72649;SDS011;61467;50.674;4.618;2023-07-29T10:13:53;3.28;;;0.88;;
72649;SDS011;61467;50.674;4.618;2023-07-29T10:16:21;4.25;;;1.17;;
72649;SDS011;61467;50.674;4.618;2023-07-29T10:18:50;4.60;;;1.40;;
72649;SDS011;61467;50.674;4.618;2023-07-29T10:21:18;4.87;;;1.77;;
72649;SDS011;61467;50.674;4.618;2023-07-29T10:23:47;4.10;;;1.35;;
72649;SDS011;61467;50.674;4.618;2023-07-29T10:26:19;6.20;;;1.73;;
72649;SDS011;61467;50.674;4.618;2023-07-29T10:28:47;3.47;;;1.10;;
72649;SDS011;61467;50.674;4.618;2023-07-29T10:31:16;3.42;;;1.00;;
72649;SDS011;61467;50.674;4.618;2023-07-29T10:33:45;3.87;;;1.10;;
72649;SDS011;61467;50.674;4.618;2023-07-29T10:36:13;5.25;;;1.15;;
72649;SDS011;61467;50.674;4.618;2023-07-29T10:38:40;4.28;;;1.40;;
72649;SDS011;61467;50.674;4.618;2023-07-29T10:41:07;4.45;;;1.10;;
72649;SDS011;61467;50.674;4.618;2023-07-29T10:43:35;4.13;;;1.02;;
72649;SDS011;61467;50.674;4.618;2023-07-29T10:46:14;4.33;;;1.30;;
72649;SDS011;61467;50.674;4.618;2023-07-29T10:48:42;3.75;;;1.08;;
72649;SDS011;61467;50.674;4.618;2023-07-29T10:51:25;4.97;;;1.20;;
72649;SDS011;61467;50.674;4.618;2023-07-29T10:53:56;3.35;;;1.10;;
72649;SDS011;61467;50.674;4.618;2023-07-29T10:56:29;4.25;;;1.17;;
72649;SDS011;61467;50.674;4.618;2023-07-29T10:59:02;4.00;;;1.33;;
72649;SDS011;61467;50.674;4.618;2023-07-29T11:01:58;4.65;;;1.30;;
72649;SDS011;61467;50.674;4.618;2023-07-29T11:04:26;3.88;;;1.30;;
72649;SDS011;61467;50.674;4.618;2023-07-29T11:09:55;4.28;;;1.40;;
72649;SDS011;61467;50.674;4.618;2023-07-29T11:15:20;5.05;;;0.98;;
72649;SDS011;61467;50.674;4.618;2023-07-29T11:17:49;4.32;;;1.58;;
72649;SDS011;61467;50.674;4.618;2023-07-29T11:20:20;7.47;;;1.50;;
72649;SDS011;61467;50.674;4.618;2023-07-29T11:22:49;5.85;;;1.58;;
72649;SDS011;61467;50.674;4.618;2023-07-29T11:25:17;4.83;;;1.50;;
72649;SDS011;61467;50.674;4.618;2023-07-29T11:27:45;7.15;;;1.75;;
72649;SDS011;61467;50.674;4.618;2023-07-29T11:30:14;5.10;;;1.60;;
72649;SDS011;61467;50.674;4.618;2023-07-29T11:32:42;5.88;;;2.25;;
72649;SDS011;61467;50.674;4.618;2023-07-29T11:35:10;5.88;;;1.83;;
72649;SDS011;61467;50.674;4.618;2023-07-29T11:37:40;5.00;;;1.90;;
72649;SDS011;61467;50.674;4.618;2023-07-29T11:40:12;5.70;;;1.80;;
72649;SDS011;61467;50.674;4.618;2023-07-29T11:42:40;5.68;;;2.05;;
72649;SDS011;61467;50.674;4.618;2023-07-29T11:45:07;4.70;;;1.80;;
72649;SDS011;61467;50.674;4.618;2023-07-29T11:47:35;4.78;;;1.80;;
72649;SDS011;61467;50.674;4.618;2023-07-29T11:50:02;5.57;;;2.30;;
72649;SDS011;61467;50.674;4.618;2023-07-29T11:52:31;5.25;;;1.92;;
72649;SDS011;61467;50.674;4.618;2023-07-29T11:54:59;5.45;;;1.65;;
72649;SDS011;61467;50.674;4.618;2023-07-29T11:57:28;4.60;;;1.50;;
72649;SDS011;61467;50.674;4.618;2023-07-29T11:59:56;4.55;;;1.50;;
72649;SDS011;61467;50.674;4.618;2023-07-29T12:02:23;4.37;;;1.40;;
72649;SDS011;61467;50.674;4.618;2023-07-29T12:04:51;4.22;;;1.40;;
72649;SDS011;61467;50.674;4.618;2023-07-29T12:07:18;5.22;;;1.50;;
72649;SDS011;61467;50.674;4.618;2023-07-29T12:09:46;4.60;;;1.50;;
72649;SDS011;61467;50.674;4.618;2023-07-29T12:12:13;4.90;;;1.45;;
72649;SDS011;61467;50.674;4.618;2023-07-29T12:14:44;4.47;;;1.50;;
72649;SDS011;61467;50.674;4.618;2023-07-29T12:17:12;4.97;;;1.42;;
72649;SDS011;61467;50.674;4.618;2023-07-29T12:19:39;3.65;;;1.23;;
72649;SDS011;61467;50.674;4.618;2023-07-29T12:22:10;4.40;;;1.10;;
72649;SDS011;61467;50.674;4.618;2023-07-29T12:24:39;4.32;;;1.30;;
72649;SDS011;61467;50.674;4.618;2023-07-29T12:27:10;4.20;;;1.33;;
72649;SDS011;61467;50.674;4.618;2023-07-29T12:29:41;4.05;;;1.10;;
72649;SDS011;61467;50.674;4.618;2023-07-29T12:32:10;4.28;;;1.10;;
72649;SDS011;61467;50.674;4.618;2023-07-29T12:34:37;3.47;;;1.02;;
72649;SDS011;61467;50.674;4.618;2023-07-29T12:37:05;4.97;;;1.15;;
72649;SDS011;61467;50.674;4.618;2023-07-29T12:39:34;4.10;;;1.33;;
72649;SDS011;61467;50.674;4.618;2023-07-29T12:42:03;4.53;;;1.23;;
72649;SDS011;61467;50.674;4.618;2023-07-29T12:44:30;3.65;;;1.25;;
72649;SDS011;61467;50.674;4.618;2023-07-29T12:46:58;4.38;;;1.15;;
72649;SDS011;61467;50.674;4.618;2023-07-29T12:49:26;3.80;;;0.90;;
72649;SDS011;61467;50.674;4.618;2023-07-29T12:51:54;3.60;;;0.83;;
72649;SDS011;61467;50.674;4.618;2023-07-29T12:54:21;3.95;;;1.23;;
72649;SDS011;61467;50.674;4.618;2023-07-29T12:56:48;3.28;;;0.93;;
72649;SDS011;61467;50.674;4.618;2023-07-29T12:59:15;3.22;;;1.00;;
72649;SDS011;61467;50.674;4.618;2023-07-29T13:01:42;3.13;;;0.93;;
72649;SDS011;61467;50.674;4.618;2023-07-29T13:04:09;3.47;;;1.00;;
72649;SDS011;61467;50.674;4.618;2023-07-29T13:06:37;2.95;;;0.80;;
72649;SDS011;61467;50.674;4.618;2023-07-29T13:09:06;4.13;;;0.90;;
72649;SDS011;61467;50.674;4.618;2023-07-29T13:11:33;3.72;;;0.77;;
72649;SDS011;61467;50.674;4.618;2023-07-29T13:14:00;3.70;;;1.30;;
72649;SDS011;61467;50.674;4.618;2023-07-29T13:16:27;5.10;;;1.00;;
72649;SDS011;61467;50.674;4.618;2023-07-29T13:18:54;4.63;;;1.00;;
72649;SDS011;61467;50.674;4.618;2023-07-29T13:21:21;5.57;;;1.30;;
72649;SDS011;61467;50.674;4.618;2023-07-29T13:23:50;5.10;;;1.23;;
72649;SDS011;61467;50.674;4.618;2023-07-29T13:26:17;4.38;;;1.38;;
72649;SDS011;61467;50.674;4.618;2023-07-29T13:28:44;5.23;;;1.63;;
72649;SDS011;61467;50.674;4.618;2023-07-29T13:31:11;3.95;;;1.17;;
72649;SDS011;61467;50.674;4.618;2023-07-29T13:33:38;4.28;;;1.42;;
72649;SDS011;61467;50.674;4.618;2023-07-29T13:36:05;4.03;;;1.27;;
72649;SDS011;61467;50.674;4.618;2023-07-29T13:38:33;4.75;;;1.33;;
72649;SDS011;61467;50.674;4.618;2023-07-29T13:41:01;4.00;;;1.00;;
72649;SDS011;61467;50.674;4.618;2023-07-29T13:43:28;2.88;;;0.85;;
72649;SDS011;61467;50.674;4.618;2023-07-29T13:45:55;3.47;;;0.90;;
72649;SDS011;61467;50.674;4.618;2023-07-29T13:48:22;4.38;;;1.00;;
72649;SDS011;61467;50.674;4.618;2023-07-29T13:50:48;2.97;;;0.90;;
72649;SDS011;61467;50.674;4.618;2023-07-29T13:53:16;2.97;;;0.80;;
72649;SDS011;61467;50.674;4.618;2023-07-29T13:55:43;3.58;;;0.90;;
72649;SDS011;61467;50.674;4.618;2023-07-29T13:58:11;3.42;;;0.95;;
72649;SDS011;61467;50.674;4.618;2023-07-29T14:00:39;3.30;;;0.82;;
72649;SDS011;61467;50.674;4.618;2023-07-29T14:03:07;3.35;;;1.02;;
72649;SDS011;61467;50.674;4.618;2023-07-29T14:05:33;3.27;;;0.93;;
72649;SDS011;61467;50.674;4.618;2023-07-29T14:08:01;3.08;;;0.70;;
72649;SDS011;61467;50.674;4.618;2023-07-29T14:10:28;2.90;;;0.90;;
72649;SDS011;61467;50.674;4.618;2023-07-29T14:12:54;2.95;;;0.80;;
72649;SDS011;61467;50.674;4.618;2023-07-29T14:15:24;3.33;;;0.90;;
72649;SDS011;61467;50.674;4.618;2023-07-29T14:17:51;2.83;;;0.87;;
72649;SDS011;61467;50.674;4.618;2023-07-29T14:20:17;2.80;;;0.70;;
72649;SDS011;61467;50.674;4.618;2023-07-29T14:22:45;2.92;;;0.73;;
72649;SDS011;61467;50.674;4.618;2023-07-29T14:25:11;3.10;;;0.77;;
72649;SDS011;61467;50.674;4.618;2023-07-29T14:27:39;2.55;;;0.77;;
72649;SDS011;61467;50.674;4.618;2023-07-29T14:30:07;3.83;;;0.60;;
72649;SDS011;61467;50.674;4.618;2023-07-29T14:32:35;4.00;;;0.90;;
72649;SDS011;61467;50.674;4.618;2023-07-29T14:35:05;2.97;;;1.05;;
72649;SDS011;61467;50.674;4.618;2023-07-29T14:37:33;3.28;;;1.00;;
72649;SDS011;61467;50.674;4.618;2023-07-29T14:40:00;3.60;;;0.90;;
72649;SDS011;61467;50.674;4.618;2023-07-29T14:42:28;4.23;;;1.10;;
72649;SDS011;61467;50.674;4.618;2023-07-29T14:44:56;5.13;;;1.00;;
72649;SDS011;61467;50.674;4.618;2023-07-29T14:47:22;2.78;;;0.80;;
72649;SDS011;61467;50.674;4.618;2023-07-29T14:49:52;3.63;;;0.80;;
72649;SDS011;61467;50.674;4.618;2023-07-29T14:52:19;3.50;;;0.90;;
72649;SDS011;61467;50.674;4.618;2023-07-29T14:54:46;3.17;;;0.73;;
72649;SDS011;61467;50.674;4.618;2023-07-29T14:57:12;3.50;;;0.70;;
72649;SDS011;61467;50.674;4.618;2023-07-29T14:59:39;3.90;;;1.15;;